sensor_id;sensor_type;location;lat;lon;timestamp;P1;durP1;ratioP1;P2;durP2;ratioP2
59054;SDS011;44845;51.444;7.460;2022-08-21T00:01:47;10.43;;;2.97;;
59054;SDS011;44845;51.444;7.460;2022-08-21T00:04:12;6.77;;;3.20;;
59054;SDS011;44845;51.444;7.460;2022-08-21T00:06:37;7.93;;;3.10;;
59054;SDS011;44845;51.444;7.460;2022-08-21T00:09:04;9.63;;;3.30;;
59054;SDS011;44845;51.444;7.460;2022-08-21T00:11:29;9.27;;;3.50;;
59054;SDS011;44845;51.444;7.460;2022-08-21T00:13:55;11.73;;;3.17;;
59054;SDS011;44845;51.444;7.460;2022-08-21T00:16:20;8.80;;;3.00;;
59054;SDS011;44845;51.444;7.460;2022-08-21T00:18:45;5.77;;;2.90;;
59054;SDS011;44845;51.444;7.460;2022-08-21T00:21:13;10.38;;;2.92;;
59054;SDS011;44845;51.444;7.460;2022-08-21T00:23:39;6.75;;;2.83;;
59054;SDS011;44845;51.444;7.460;2022-08-21T00:26:04;7.50;;;3.47;;
59054;SDS011;44845;51.444;7.460;2022-08-21T00:28:30;10.88;;;3.92;;
59054;SDS011;44845;51.444;7.460;2022-08-21T00:30:55;7.90;;;2.93;;
59054;SDS011;44845;51.444;7.460;2022-08-21T00:33:21;9.32;;;3.55;;
59054;SDS011;44845;51.444;7.460;2022-08-21T00:35:46;7.85;;;3.42;;
59054;SDS011;44845;51.444;7.460;2022-08-21T00:38:12;11.17;;;3.93;;
59054;SDS011;44845;51.444;7.460;2022-08-21T00:40:40;9.00;;;3.92;;
59054;SDS011;44845;51.444;7.460;2022-08-21T00:43:06;8.27;;;4.65;;
59054;SDS011;44845;51.444;7.460;2022-08-21T00:45:32;13.60;;;4.97;;
59054;SDS011;44845;51.444;7.460;2022-08-21T00:47:58;9.80;;;5.20;;
59054;SDS011;44845;51.444;7.460;2022-08-21T00:50:25;13.80;;;5.47;;
59054;SDS011;44845;51.444;7.460;2022-08-21T00:52:51;12.48;;;6.47;;
59054;SDS011;44845;51.444;7.460;2022-08-21T00:55:17;12.98;;;6.10;;
59054;SDS011;44845;51.444;7.460;2022-08-21T00:57:44;12.77;;;5.90;;
59054;SDS011;44845;51.444;7.460;2022-08-21T01:00:12;11.82;;;6.18;;
59054;SDS011;44845;51.444;7.460;2022-08-21T01:02:38;10.55;;;6.30;;
59054;SDS011;44845;51.444;7.460;2022-08-21T01:05:03;12.52;;;6.45;;
59054;SDS011;44845;51.444;7.460;2022-08-21T01:07:29;17.30;;;6.70;;
59054;SDS011;44845;51.444;7.460;2022-08-21T01:09:55;11.68;;;6.28;;
59054;SDS011;44845;51.444;7.460;2022-08-21T01:12:20;11.20;;;6.53;;
59054;SDS011;44845;51.444;7.460;2022-08-21T01:14:45;10.50;;;6.00;;
59054;SDS011;44845;51.444;7.460;2022-08-21T01:17:11;10.38;;;5.97;;
59054;SDS011;44845;51.444;7.460;2022-08-21T01:19:38;11.55;;;6.00;;
59054;SDS011;44845;51.444;7.460;2022-08-21T01:22:03;13.53;;;6.70;;
59054;SDS011;44845;51.444;7.460;2022-08-21T01:24:28;13.32;;;6.38;;
59054;SDS011;44845;51.444;7.460;2022-08-21T01:26:56;11.88;;;6.63;;
59054;SDS011;44845;51.444;7.460;2022-08-21T01:32:07;14.35;;;6.60;;
59054;SDS011;44845;51.444;7.460;2022-08-21T01:34:34;10.30;;;6.50;;
59054;SDS011;44845;51.444;7.460;2022-08-21T01:37:01;12.05;;;5.90;;
59054;SDS011;44845;51.444;7.460;2022-08-21T01:39:27;11.55;;;5.80;;
59054;SDS011;44845;51.444;7.460;2022-08-21T01:41:52;11.35;;;5.38;;
59054;SDS011;44845;51.444;7.460;2022-08-21T01:44:20;12.77;;;5.82;;
59054;SDS011;44845;51.444;7.460;2022-08-21T01:46:45;10.65;;;5.93;;
59054;SDS011;44845;51.444;7.460;2022-08-21T01:49:10;13.60;;;7.00;;
59054;SDS011;44845;51.444;7.460;2022-08-21T01:51:35;10.87;;;5.77;;
59054;SDS011;44845;51.444;7.460;2022-08-21T01:54:01;10.57;;;6.03;;
59054;SDS011;44845;51.444;7.460;2022-08-21T01:56:26;11.40;;;5.83;;
59054;SDS011;44845;51.444;7.460;2022-08-21T01:58:52;15.68;;;5.68;;
59054;SDS011;44845;51.444;7.460;2022-08-21T02:01:17;10.67;;;6.00;;
59054;SDS011;44845;51.444;7.460;2022-08-21T02:03:43;9.17;;;5.90;;
59054;SDS011;44845;51.444;7.460;2022-08-21T02:06:11;15.47;;;5.80;;
59054;SDS011;44845;51.444;7.460;2022-08-21T02:08:37;8.73;;;5.65;;
59054;SDS011;44845;51.444;7.460;2022-08-21T02:11:03;9.03;;;5.20;;
59054;SDS011;44845;51.444;7.460;2022-08-21T02:13:28;8.83;;;5.47;;
59054;SDS011;44845;51.444;7.460;2022-08-21T02:15:53;7.30;;;4.73;;
59054;SDS011;44845;51.444;7.460;2022-08-21T02:18:18;8.43;;;5.20;;
59054;SDS011;44845;51.444;7.460;2022-08-21T02:20:45;13.75;;;5.68;;
59054;SDS011;44845;51.444;7.460;2022-08-21T02:23:10;13.13;;;5.75;;
59054;SDS011;44845;51.444;7.460;2022-08-21T02:25:36;12.23;;;5.20;;
59054;SDS011;44845;51.444;7.460;2022-08-21T02:28:07;10.10;;;4.65;;
59054;SDS011;44845;51.444;7.460;2022-08-21T02:30:34;8.93;;;5.28;;
59054;SDS011;44845;51.444;7.460;2022-08-21T02:33:00;15.57;;;5.40;;
59054;SDS011;44845;51.444;7.460;2022-08-21T02:35:26;13.90;;;5.55;;
59054;SDS011;44845;51.444;7.460;2022-08-21T02:37:53;10.43;;;5.65;;
59054;SDS011;44845;51.444;7.460;2022-08-21T02:40:20;10.82;;;5.30;;
59054;SDS011;44845;51.444;7.460;2022-08-21T02:42:45;10.25;;;4.80;;
59054;SDS011;44845;51.444;7.460;2022-08-21T02:45:11;9.63;;;5.10;;
59054;SDS011;44845;51.444;7.460;2022-08-21T02:47:37;11.13;;;5.38;;
59054;SDS011;44845;51.444;7.460;2022-08-21T02:50:03;12.18;;;5.53;;
59054;SDS011;44845;51.444;7.460;2022-08-21T02:52:28;9.63;;;5.38;;
59054;SDS011;44845;51.444;7.460;2022-08-21T02:54:54;9.75;;;5.40;;
59054;SDS011;44845;51.444;7.460;2022-08-21T02:57:19;8.77;;;4.93;;
59054;SDS011;44845;51.444;7.460;2022-08-21T02:59:44;14.50;;;5.10;;
59054;SDS011;44845;51.444;7.460;2022-08-21T03:02:09;13.83;;;5.17;;
59054;SDS011;44845;51.444;7.460;2022-08-21T03:04:35;11.40;;;5.20;;
59054;SDS011;44845;51.444;7.460;2022-08-21T03:07:01;11.47;;;5.50;;
59054;SDS011;44845;51.444;7.460;2022-08-21T03:09:26;12.50;;;5.20;;
59054;SDS011;44845;51.444;7.460;2022-08-21T03:11:51;12.88;;;5.35;;
59054;SDS011;44845;51.444;7.460;2022-08-21T03:14:17;11.15;;;5.15;;
59054;SDS011;44845;51.444;7.460;2022-08-21T03:16:42;12.25;;;5.82;;
59054;SDS011;44845;51.444;7.460;2022-08-21T03:19:07;12.23;;;5.83;;
59054;SDS011;44845;51.444;7.460;2022-08-21T03:21:32;11.40;;;5.00;;
59054;SDS011;44845;51.444;7.460;2022-08-21T03:23:58;9.35;;;5.43;;
59054;SDS011;44845;51.444;7.460;2022-08-21T03:26:23;12.60;;;5.60;;
59054;SDS011;44845;51.444;7.460;2022-08-21T03:28:49;9.73;;;5.70;;
59054;SDS011;44845;51.444;7.460;2022-08-21T03:31:15;12.25;;;5.97;;
59054;SDS011;44845;51.444;7.460;2022-08-21T03:33:42;9.88;;;5.55;;
59054;SDS011;44845;51.444;7.460;2022-08-21T03:36:07;11.40;;;5.13;;
59054;SDS011;44845;51.444;7.460;2022-08-21T03:38:33;7.10;;;5.30;;
59054;SDS011;44845;51.444;7.460;2022-08-21T03:40:59;11.00;;;5.35;;
59054;SDS011;44845;51.444;7.460;2022-08-21T03:43:25;11.38;;;5.70;;
59054;SDS011;44845;51.444;7.460;2022-08-21T03:45:50;10.88;;;5.40;;
59054;SDS011;44845;51.444;7.460;2022-08-21T03:48:15;9.33;;;5.17;;
59054;SDS011;44845;51.444;7.460;2022-08-21T03:50:42;12.97;;;5.40;;
59054;SDS011;44845;51.444;7.460;2022-08-21T03:53:09;10.82;;;5.53;;
59054;SDS011;44845;51.444;7.460;2022-08-21T03:55:34;12.18;;;5.25;;
59054;SDS011;44845;51.444;7.460;2022-08-21T03:57:59;8.10;;;4.80;;
59054;SDS011;44845;51.444;7.460;2022-08-21T04:00:25;9.53;;;5.27;;
59054;SDS011;44845;51.444;7.460;2022-08-21T04:02:50;8.63;;;4.80;;
59054;SDS011;44845;51.444;7.460;2022-08-21T04:05:15;9.70;;;5.15;;
59054;SDS011;44845;51.444;7.460;2022-08-21T04:07:52;10.60;;;5.10;;
59054;SDS011;44845;51.444;7.460;2022-08-21T04:10:18;9.63;;;4.85;;
59054;SDS011;44845;51.444;7.460;2022-08-21T04:12:43;11.70;;;5.25;;
59054;SDS011;44845;51.444;7.460;2022-08-21T04:15:08;11.47;;;5.33;;
59054;SDS011;44845;51.444;7.460;2022-08-21T04:17:33;7.43;;;4.88;;
59054;SDS011;44845;51.444;7.460;2022-08-21T04:19:59;9.75;;;4.82;;
59054;SDS011;44845;51.444;7.460;2022-08-21T04:22:24;10.33;;;4.60;;
59054;SDS011;44845;51.444;7.460;2022-08-21T04:24:50;10.23;;;5.67;;
59054;SDS011;44845;51.444;7.460;2022-08-21T04:27:15;10.83;;;4.97;;
59054;SDS011;44845;51.444;7.460;2022-08-21T04:29:40;14.45;;;5.82;;
59054;SDS011;44845;51.444;7.460;2022-08-21T04:32:05;12.50;;;5.77;;
59054;SDS011;44845;51.444;7.460;2022-08-21T04:34:31;9.65;;;5.32;;
59054;SDS011;44845;51.444;7.460;2022-08-21T04:36:56;10.07;;;5.87;;
59054;SDS011;44845;51.444;7.460;2022-08-21T04:39:21;16.35;;;5.68;;
59054;SDS011;44845;51.444;7.460;2022-08-21T04:41:46;8.15;;;5.28;;
59054;SDS011;44845;51.444;7.460;2022-08-21T04:44:11;9.30;;;5.20;;
59054;SDS011;44845;51.444;7.460;2022-08-21T04:46:36;7.35;;;4.55;;
59054;SDS011;44845;51.444;7.460;2022-08-21T04:49:02;12.18;;;5.50;;
59054;SDS011;44845;51.444;7.460;2022-08-21T04:51:29;9.43;;;5.60;;
59054;SDS011;44845;51.444;7.460;2022-08-21T04:53:59;11.18;;;5.78;;
59054;SDS011;44845;51.444;7.460;2022-08-21T04:56:26;8.57;;;5.45;;
59054;SDS011;44845;51.444;7.460;2022-08-21T04:58:53;9.98;;;5.65;;
59054;SDS011;44845;51.444;7.460;2022-08-21T05:01:21;12.10;;;4.55;;
59054;SDS011;44845;51.444;7.460;2022-08-21T05:03:47;10.32;;;5.13;;
59054;SDS011;44845;51.444;7.460;2022-08-21T05:06:13;10.38;;;5.10;;
59054;SDS011;44845;51.444;7.460;2022-08-21T05:08:39;7.82;;;5.00;;
59054;SDS011;44845;51.444;7.460;2022-08-21T05:11:05;8.35;;;4.82;;
59054;SDS011;44845;51.444;7.460;2022-08-21T05:13:31;8.07;;;5.20;;
59054;SDS011;44845;51.444;7.460;2022-08-21T05:15:56;12.45;;;5.25;;
59054;SDS011;44845;51.444;7.460;2022-08-21T05:18:22;12.48;;;5.32;;
59054;SDS011;44845;51.444;7.460;2022-08-21T05:20:47;12.10;;;5.20;;
59054;SDS011;44845;51.444;7.460;2022-08-21T05:23:12;9.90;;;5.10;;
59054;SDS011;44845;51.444;7.460;2022-08-21T05:25:38;12.65;;;5.65;;
59054;SDS011;44845;51.444;7.460;2022-08-21T05:28:03;11.82;;;4.95;;
59054;SDS011;44845;51.444;7.460;2022-08-21T05:30:29;11.55;;;4.90;;
59054;SDS011;44845;51.444;7.460;2022-08-21T05:32:58;7.67;;;5.00;;
59054;SDS011;44845;51.444;7.460;2022-08-21T05:35:23;9.00;;;4.97;;
59054;SDS011;44845;51.444;7.460;2022-08-21T05:37:48;8.93;;;4.63;;
59054;SDS011;44845;51.444;7.460;2022-08-21T05:40:13;9.80;;;4.78;;
59054;SDS011;44845;51.444;7.460;2022-08-21T05:42:39;8.32;;;4.82;;
59054;SDS011;44845;51.444;7.460;2022-08-21T05:45:04;10.83;;;5.13;;
59054;SDS011;44845;51.444;7.460;2022-08-21T05:47:29;9.68;;;5.30;;
59054;SDS011;44845;51.444;7.460;2022-08-21T05:49:54;13.43;;;5.73;;
59054;SDS011;44845;51.444;7.460;2022-08-21T05:52:20;8.32;;;5.00;;
59054;SDS011;44845;51.444;7.460;2022-08-21T05:54:46;9.27;;;5.65;;
59054;SDS011;44845;51.444;7.460;2022-08-21T05:57:11;14.55;;;5.20;;
59054;SDS011;44845;51.444;7.460;2022-08-21T05:59:36;11.73;;;5.63;;
59054;SDS011;44845;51.444;7.460;2022-08-21T06:02:02;9.05;;;5.47;;
59054;SDS011;44845;51.444;7.460;2022-08-21T06:04:28;11.52;;;4.97;;
59054;SDS011;44845;51.444;7.460;2022-08-21T06:06:53;10.63;;;5.25;;
59054;SDS011;44845;51.444;7.460;2022-08-21T06:09:18;8.43;;;4.80;;
59054;SDS011;44845;51.444;7.460;2022-08-21T06:11:43;12.43;;;5.55;;
59054;SDS011;44845;51.444;7.460;2022-08-21T06:14:09;11.10;;;5.60;;
59054;SDS011;44845;51.444;7.460;2022-08-21T06:16:34;13.03;;;5.10;;
59054;SDS011;44845;51.444;7.460;2022-08-21T06:18:59;10.57;;;4.87;;
59054;SDS011;44845;51.444;7.460;2022-08-21T06:21:24;9.30;;;5.07;;
59054;SDS011;44845;51.444;7.460;2022-08-21T06:23:49;10.45;;;5.40;;
59054;SDS011;44845;51.444;7.460;2022-08-21T06:26:15;11.93;;;5.23;;
59054;SDS011;44845;51.444;7.460;2022-08-21T06:28:40;10.52;;;5.18;;
59054;SDS011;44845;51.444;7.460;2022-08-21T06:31:16;10.57;;;5.13;;
59054;SDS011;44845;51.444;7.460;2022-08-21T06:33:41;12.65;;;4.90;;
59054;SDS011;44845;51.444;7.460;2022-08-21T06:36:07;9.55;;;4.88;;
59054;SDS011;44845;51.444;7.460;2022-08-21T06:38:32;9.63;;;4.82;;
59054;SDS011;44845;51.444;7.460;2022-08-21T06:40:57;11.37;;;4.80;;
59054;SDS011;44845;51.444;7.460;2022-08-21T06:43:22;9.10;;;4.28;;
59054;SDS011;44845;51.444;7.460;2022-08-21T06:45:47;13.07;;;4.25;;
59054;SDS011;44845;51.444;7.460;2022-08-21T06:48:12;8.55;;;4.68;;
59054;SDS011;44845;51.444;7.460;2022-08-21T06:50:38;8.00;;;4.63;;
59054;SDS011;44845;51.444;7.460;2022-08-21T06:53:04;9.40;;;4.67;;
59054;SDS011;44845;51.444;7.460;2022-08-21T06:55:30;9.48;;;4.45;;
59054;SDS011;44845;51.444;7.460;2022-08-21T06:57:55;11.38;;;4.82;;
59054;SDS011;44845;51.444;7.460;2022-08-21T07:00:21;10.20;;;4.87;;
59054;SDS011;44845;51.444;7.460;2022-08-21T07:02:46;14.43;;;5.20;;
59054;SDS011;44845;51.444;7.460;2022-08-21T07:05:11;9.18;;;5.10;;
59054;SDS011;44845;51.444;7.460;2022-08-21T07:07:36;12.93;;;5.00;;
59054;SDS011;44845;51.444;7.460;2022-08-21T07:10:02;9.23;;;5.00;;
59054;SDS011;44845;51.444;7.460;2022-08-21T07:12:27;10.18;;;4.80;;
59054;SDS011;44845;51.444;7.460;2022-08-21T07:14:53;10.47;;;4.77;;
59054;SDS011;44845;51.444;7.460;2022-08-21T07:17:18;11.50;;;5.40;;
59054;SDS011;44845;51.444;7.460;2022-08-21T07:19:43;10.15;;;5.70;;
59054;SDS011;44845;51.444;7.460;2022-08-21T07:22:08;11.20;;;5.75;;
59054;SDS011;44845;51.444;7.460;2022-08-21T07:24:34;12.43;;;5.55;;
59054;SDS011;44845;51.444;7.460;2022-08-21T07:26:59;16.40;;;5.37;;
59054;SDS011;44845;51.444;7.460;2022-08-21T07:29:24;10.37;;;5.50;;
59054;SDS011;44845;51.444;7.460;2022-08-21T07:31:49;10.00;;;5.03;;
59054;SDS011;44845;51.444;7.460;2022-08-21T07:34:14;11.55;;;5.80;;
59054;SDS011;44845;51.444;7.460;2022-08-21T07:36:39;13.05;;;6.07;;
59054;SDS011;44845;51.444;7.460;2022-08-21T07:39:05;10.50;;;5.50;;
59054;SDS011;44845;51.444;7.460;2022-08-21T07:41:30;12.18;;;6.00;;
59054;SDS011;44845;51.444;7.460;2022-08-21T07:43:57;12.60;;;6.35;;
59054;SDS011;44845;51.444;7.460;2022-08-21T07:46:23;12.90;;;6.30;;
59054;SDS011;44845;51.444;7.460;2022-08-21T07:48:48;12.23;;;6.35;;
59054;SDS011;44845;51.444;7.460;2022-08-21T07:51:15;11.45;;;6.72;;
59054;SDS011;44845;51.444;7.460;2022-08-21T07:53:41;12.40;;;6.15;;
59054;SDS011;44845;51.444;7.460;2022-08-21T07:56:07;16.80;;;6.70;;
59054;SDS011;44845;51.444;7.460;2022-08-21T07:58:33;15.63;;;7.15;;
59054;SDS011;44845;51.444;7.460;2022-08-21T08:00:58;13.77;;;6.50;;
59054;SDS011;44845;51.444;7.460;2022-08-21T08:03:23;15.93;;;7.07;;
59054;SDS011;44845;51.444;7.460;2022-08-21T08:05:48;14.53;;;6.23;;
59054;SDS011;44845;51.444;7.460;2022-08-21T08:08:14;12.17;;;6.27;;
59054;SDS011;44845;51.444;7.460;2022-08-21T08:10:39;15.80;;;6.57;;
59054;SDS011;44845;51.444;7.460;2022-08-21T08:13:05;15.40;;;6.68;;
59054;SDS011;44845;51.444;7.460;2022-08-21T08:15:30;14.98;;;6.97;;
59054;SDS011;44845;51.444;7.460;2022-08-21T08:17:56;19.02;;;6.63;;
59054;SDS011;44845;51.444;7.460;2022-08-21T08:20:22;11.10;;;5.60;;
59054;SDS011;44845;51.444;7.460;2022-08-21T08:22:47;11.68;;;5.88;;
59054;SDS011;44845;51.444;7.460;2022-08-21T08:25:13;10.93;;;5.70;;
59054;SDS011;44845;51.444;7.460;2022-08-21T08:27:38;11.80;;;5.05;;
59054;SDS011;44845;51.444;7.460;2022-08-21T08:30:04;13.43;;;6.03;;
59054;SDS011;44845;51.444;7.460;2022-08-21T08:32:30;11.75;;;5.30;;
59054;SDS011;44845;51.444;7.460;2022-08-21T08:34:55;10.50;;;5.27;;
59054;SDS011;44845;51.444;7.460;2022-08-21T08:37:20;13.43;;;5.05;;
59054;SDS011;44845;51.444;7.460;2022-08-21T08:39:45;11.67;;;4.93;;
59054;SDS011;44845;51.444;7.460;2022-08-21T08:42:11;11.40;;;4.57;;
59054;SDS011;44845;51.444;7.460;2022-08-21T08:44:38;14.05;;;4.00;;
59054;SDS011;44845;51.444;7.460;2022-08-21T08:47:04;13.48;;;3.97;;
59054;SDS011;44845;51.444;7.460;2022-08-21T08:49:48;12.45;;;4.07;;
59054;SDS011;44845;51.444;7.460;2022-08-21T08:52:26;13.80;;;3.60;;
59054;SDS011;44845;51.444;7.460;2022-08-21T08:54:57;13.23;;;3.28;;
59054;SDS011;44845;51.444;7.460;2022-08-21T08:57:25;10.60;;;2.75;;
59054;SDS011;44845;51.444;7.460;2022-08-21T08:59:51;7.13;;;2.70;;
59054;SDS011;44845;51.444;7.460;2022-08-21T09:02:18;8.25;;;2.88;;
59054;SDS011;44845;51.444;7.460;2022-08-21T09:04:45;8.77;;;2.60;;
59054;SDS011;44845;51.444;7.460;2022-08-21T09:09:55;8.35;;;2.45;;
59054;SDS011;44845;51.444;7.460;2022-08-21T09:17:59;8.63;;;2.10;;
59054;SDS011;44845;51.444;7.460;2022-08-21T09:25:48;6.07;;;1.90;;
59054;SDS011;44845;51.444;7.460;2022-08-21T09:28:16;8.75;;;2.45;;
59054;SDS011;44845;51.444;7.460;2022-08-21T09:30:41;7.47;;;2.50;;
59054;SDS011;44845;51.444;7.460;2022-08-21T09:33:06;8.10;;;2.50;;
59054;SDS011;44845;51.444;7.460;2022-08-21T09:35:32;10.40;;;2.60;;
59054;SDS011;44845;51.444;7.460;2022-08-21T09:38:01;5.85;;;1.80;;
59054;SDS011;44845;51.444;7.460;2022-08-21T09:43:05;6.53;;;1.80;;
59054;SDS011;44845;51.444;7.460;2022-08-21T09:45:31;7.05;;;1.90;;
59054;SDS011;44845;51.444;7.460;2022-08-21T09:48:07;10.80;;;1.92;;
59054;SDS011;44845;51.444;7.460;2022-08-21T09:50:32;7.93;;;1.65;;
59054;SDS011;44845;51.444;7.460;2022-08-21T09:52:58;5.25;;;1.60;;
59054;SDS011;44845;51.444;7.460;2022-08-21T09:55:47;8.07;;;1.90;;
59054;SDS011;44845;51.444;7.460;2022-08-21T09:58:32;7.15;;;1.58;;
59054;SDS011;44845;51.444;7.460;2022-08-21T10:00:59;6.35;;;1.80;;
59054;SDS011;44845;51.444;7.460;2022-08-21T10:03:25;6.43;;;1.80;;
59054;SDS011;44845;51.444;7.460;2022-08-21T10:05:56;4.20;;;1.25;;
59054;SDS011;44845;51.444;7.460;2022-08-21T10:08:23;5.82;;;1.83;;
59054;SDS011;44845;51.444;7.460;2022-08-21T10:10:53;8.32;;;1.92;;
59054;SDS011;44845;51.444;7.460;2022-08-21T10:13:32;5.70;;;1.80;;
59054;SDS011;44845;51.444;7.460;2022-08-21T10:18:42;4.68;;;1.60;;
59054;SDS011;44845;51.444;7.460;2022-08-21T10:21:16;8.52;;;2.05;;
59054;SDS011;44845;51.444;7.460;2022-08-21T10:24:01;6.15;;;1.73;;
59054;SDS011;44845;51.444;7.460;2022-08-21T10:31:46;6.70;;;1.70;;
59054;SDS011;44845;51.444;7.460;2022-08-21T10:34:36;7.25;;;1.90;;
59054;SDS011;44845;51.444;7.460;2022-08-21T10:42:01;7.82;;;1.80;;
59054;SDS011;44845;51.444;7.460;2022-08-21T10:52:26;5.28;;;1.52;;
59054;SDS011;44845;51.444;7.460;2022-08-21T10:59:53;5.90;;;1.45;;
59054;SDS011;44845;51.444;7.460;2022-08-21T11:02:23;7.65;;;1.67;;
59054;SDS011;44845;51.444;7.460;2022-08-21T11:05:01;6.18;;;1.77;;
59054;SDS011;44845;51.444;7.460;2022-08-21T11:07:33;3.55;;;1.55;;
59054;SDS011;44845;51.444;7.460;2022-08-21T11:10:00;7.32;;;2.00;;
59054;SDS011;44845;51.444;7.460;2022-08-21T11:12:41;6.57;;;1.80;;
59054;SDS011;44845;51.444;7.460;2022-08-21T11:15:17;7.30;;;1.52;;
59054;SDS011;44845;51.444;7.460;2022-08-21T11:17:59;3.35;;;1.15;;
59054;SDS011;44845;51.444;7.460;2022-08-21T11:22:56;3.60;;;1.10;;
59054;SDS011;44845;51.444;7.460;2022-08-21T11:25:26;4.18;;;1.13;;
59054;SDS011;44845;51.444;7.460;2022-08-21T11:27:59;5.75;;;1.20;;
59054;SDS011;44845;51.444;7.460;2022-08-21T11:30:27;4.72;;;1.20;;
59054;SDS011;44845;51.444;7.460;2022-08-21T11:38:20;4.95;;;1.23;;
59054;SDS011;44845;51.444;7.460;2022-08-21T11:46:43;5.22;;;1.08;;
59054;SDS011;44845;51.444;7.460;2022-08-21T11:51:13;2.93;;;0.90;;
59054;SDS011;44845;51.444;7.460;2022-08-21T11:56:17;2.40;;;1.00;;
59054;SDS011;44845;51.444;7.460;2022-08-21T11:58:45;3.72;;;0.80;;
59054;SDS011;44845;51.444;7.460;2022-08-21T12:01:15;5.45;;;1.20;;
59054;SDS011;44845;51.444;7.460;2022-08-21T12:03:42;5.35;;;1.23;;
59054;SDS011;44845;51.444;7.460;2022-08-21T12:06:15;6.28;;;1.38;;
59054;SDS011;44845;51.444;7.460;2022-08-21T12:08:44;4.50;;;1.10;;
59054;SDS011;44845;51.444;7.460;2022-08-21T12:13:53;3.45;;;1.08;;
59054;SDS011;44845;51.444;7.460;2022-08-21T12:16:30;4.63;;;1.02;;
59054;SDS011;44845;51.444;7.460;2022-08-21T12:19:06;5.50;;;1.10;;
59054;SDS011;44845;51.444;7.460;2022-08-21T12:21:32;4.32;;;1.25;;
59054;SDS011;44845;51.444;7.460;2022-08-21T12:26:51;4.78;;;1.10;;
59054;SDS011;44845;51.444;7.460;2022-08-21T12:29:24;2.90;;;0.90;;
59054;SDS011;44845;51.444;7.460;2022-08-21T12:31:55;5.30;;;0.93;;
59054;SDS011;44845;51.444;7.460;2022-08-21T12:34:22;2.53;;;0.90;;
59054;SDS011;44845;51.444;7.460;2022-08-21T12:36:49;3.08;;;0.93;;
59054;SDS011;44845;51.444;7.460;2022-08-21T12:39:21;3.45;;;1.10;;
59054;SDS011;44845;51.444;7.460;2022-08-21T12:41:49;3.22;;;1.17;;
59054;SDS011;44845;51.444;7.460;2022-08-21T12:44:17;3.33;;;0.80;;
59054;SDS011;44845;51.444;7.460;2022-08-21T12:46:46;3.55;;;1.00;;
59054;SDS011;44845;51.444;7.460;2022-08-21T12:49:26;2.95;;;0.80;;
59054;SDS011;44845;51.444;7.460;2022-08-21T12:51:54;3.78;;;0.90;;
59054;SDS011;44845;51.444;7.460;2022-08-21T12:54:40;3.47;;;1.10;;
59054;SDS011;44845;51.444;7.460;2022-08-21T12:57:06;3.35;;;0.80;;
59054;SDS011;44845;51.444;7.460;2022-08-21T12:59:32;3.00;;;0.93;;
59054;SDS011;44845;51.444;7.460;2022-08-21T13:02:01;3.60;;;0.82;;
59054;SDS011;44845;51.444;7.460;2022-08-21T13:04:39;2.15;;;0.90;;
59054;SDS011;44845;51.444;7.460;2022-08-21T13:07:09;2.50;;;0.82;;
59054;SDS011;44845;51.444;7.460;2022-08-21T13:09:40;5.32;;;0.95;;
59054;SDS011;44845;51.444;7.460;2022-08-21T13:12:07;2.03;;;0.80;;
59054;SDS011;44845;51.444;7.460;2022-08-21T13:14:41;2.55;;;0.90;;
59054;SDS011;44845;51.444;7.460;2022-08-21T13:17:07;2.75;;;0.95;;
59054;SDS011;44845;51.444;7.460;2022-08-21T13:19:32;2.53;;;0.80;;
59054;SDS011;44845;51.444;7.460;2022-08-21T13:21:58;3.03;;;0.88;;
59054;SDS011;44845;51.444;7.460;2022-08-21T13:24:28;3.85;;;0.82;;
59054;SDS011;44845;51.444;7.460;2022-08-21T13:26:54;1.52;;;0.55;;
59054;SDS011;44845;51.444;7.460;2022-08-21T13:29:20;3.08;;;1.00;;
59054;SDS011;44845;51.444;7.460;2022-08-21T13:31:50;4.15;;;0.95;;
59054;SDS011;44845;51.444;7.460;2022-08-21T13:34:17;3.08;;;0.80;;
59054;SDS011;44845;51.444;7.460;2022-08-21T13:36:44;2.15;;;0.70;;
59054;SDS011;44845;51.444;7.460;2022-08-21T13:39:10;2.65;;;0.85;;
59054;SDS011;44845;51.444;7.460;2022-08-21T13:41:37;5.18;;;0.90;;
59054;SDS011;44845;51.444;7.460;2022-08-21T13:44:14;2.13;;;0.70;;
59054;SDS011;44845;51.444;7.460;2022-08-21T13:46:39;1.48;;;0.68;;
59054;SDS011;44845;51.444;7.460;2022-08-21T13:49:05;2.60;;;0.70;;
59054;SDS011;44845;51.444;7.460;2022-08-21T13:51:31;2.80;;;0.73;;
59054;SDS011;44845;51.444;7.460;2022-08-21T13:53:56;2.28;;;0.98;;
59054;SDS011;44845;51.444;7.460;2022-08-21T13:56:26;2.22;;;0.73;;
59054;SDS011;44845;51.444;7.460;2022-08-21T13:58:52;2.05;;;0.60;;
59054;SDS011;44845;51.444;7.460;2022-08-21T14:03:43;3.13;;;0.77;;
59054;SDS011;44845;51.444;7.460;2022-08-21T14:06:18;1.27;;;0.70;;
59054;SDS011;44845;51.444;7.460;2022-08-21T14:11:10;3.38;;;0.95;;
59054;SDS011;44845;51.444;7.460;2022-08-21T14:13:40;3.70;;;0.93;;
59054;SDS011;44845;51.444;7.460;2022-08-21T14:16:18;2.42;;;1.00;;
59054;SDS011;44845;51.444;7.460;2022-08-21T14:21:32;2.97;;;0.88;;
59054;SDS011;44845;51.444;7.460;2022-08-21T14:24:05;3.85;;;0.82;;
59054;SDS011;44845;51.444;7.460;2022-08-21T14:26:31;3.67;;;0.90;;
59054;SDS011;44845;51.444;7.460;2022-08-21T14:28:58;3.53;;;0.75;;
59054;SDS011;44845;51.444;7.460;2022-08-21T14:31:27;1.27;;;0.50;;
59054;SDS011;44845;51.444;7.460;2022-08-21T14:33:54;2.80;;;1.00;;
59054;SDS011;44845;51.444;7.460;2022-08-21T14:36:19;3.40;;;0.73;;
59054;SDS011;44845;51.444;7.460;2022-08-21T14:38:44;2.30;;;0.60;;
59054;SDS011;44845;51.444;7.460;2022-08-21T14:41:17;2.47;;;0.70;;
59054;SDS011;44845;51.444;7.460;2022-08-21T14:43:43;3.07;;;0.90;;
59054;SDS011;44845;51.444;7.460;2022-08-21T14:46:09;1.45;;;0.77;;
59054;SDS011;44845;51.444;7.460;2022-08-21T14:48:34;1.60;;;0.77;;
59054;SDS011;44845;51.444;7.460;2022-08-21T14:50:59;3.87;;;1.13;;
59054;SDS011;44845;51.444;7.460;2022-08-21T14:53:24;4.03;;;1.03;;
59054;SDS011;44845;51.444;7.460;2022-08-21T14:55:49;2.65;;;0.85;;
59054;SDS011;44845;51.444;7.460;2022-08-21T14:58:29;2.42;;;0.70;;
59054;SDS011;44845;51.444;7.460;2022-08-21T15:00:55;3.20;;;1.00;;
59054;SDS011;44845;51.444;7.460;2022-08-21T15:03:22;3.33;;;1.00;;
59054;SDS011;44845;51.444;7.460;2022-08-21T15:05:48;1.50;;;0.80;;
59054;SDS011;44845;51.444;7.460;2022-08-21T15:08:13;2.42;;;0.80;;
59054;SDS011;44845;51.444;7.460;2022-08-21T15:10:39;1.37;;;0.60;;
59054;SDS011;44845;51.444;7.460;2022-08-21T15:13:04;1.88;;;0.80;;
59054;SDS011;44845;51.444;7.460;2022-08-21T15:15:30;2.45;;;0.88;;
59054;SDS011;44845;51.444;7.460;2022-08-21T15:17:58;2.45;;;0.88;;
59054;SDS011;44845;51.444;7.460;2022-08-21T15:20:23;5.10;;;1.00;;
59054;SDS011;44845;51.444;7.460;2022-08-21T15:22:48;3.33;;;0.93;;
59054;SDS011;44845;51.444;7.460;2022-08-21T15:25:13;2.53;;;0.77;;
59054;SDS011;44845;51.444;7.460;2022-08-21T15:27:38;2.28;;;0.80;;
59054;SDS011;44845;51.444;7.460;2022-08-21T15:30:04;2.80;;;0.97;;
59054;SDS011;44845;51.444;7.460;2022-08-21T15:32:29;5.72;;;0.80;;
59054;SDS011;44845;51.444;7.460;2022-08-21T15:34:56;1.88;;;0.70;;
59054;SDS011;44845;51.444;7.460;2022-08-21T15:37:22;2.70;;;0.70;;
59054;SDS011;44845;51.444;7.460;2022-08-21T15:39:48;2.88;;;0.80;;
59054;SDS011;44845;51.444;7.460;2022-08-21T15:42:13;2.50;;;0.77;;
59054;SDS011;44845;51.444;7.460;2022-08-21T15:44:39;2.30;;;0.80;;
59054;SDS011;44845;51.444;7.460;2022-08-21T15:47:05;2.72;;;0.70;;
59054;SDS011;44845;51.444;7.460;2022-08-21T15:49:30;1.95;;;0.68;;
59054;SDS011;44845;51.444;7.460;2022-08-21T15:51:56;2.25;;;0.68;;
59054;SDS011;44845;51.444;7.460;2022-08-21T15:54:21;2.83;;;1.17;;
59054;SDS011;44845;51.444;7.460;2022-08-21T15:56:47;2.10;;;0.77;;
59054;SDS011;44845;51.444;7.460;2022-08-21T15:59:14;2.30;;;0.70;;